createdAt,value
2023-02-03T00:00:00.465Z,6.0
2023-02-03T00:05:00.367Z,6.2
2023-02-03T00:10:00.389Z,7.1
2023-02-03T00:15:00.420Z,8.1
2023-02-03T00:20:00.346Z,6.8
2023-02-03T00:25:00.379Z,6.2
2023-02-03T00:30:00.358Z,8.8
2023-02-03T00:35:00.401Z,8.1
2023-02-03T00:40:00.353Z,7.5
2023-02-03T00:45:00.378Z,8.0
2023-02-03T00:50:00.402Z,8.7
2023-02-03T00:55:00.371Z,9.0
2023-02-03T01:00:00.393Z,11.8
2023-02-03T01:05:00.378Z,8.5
2023-02-03T01:10:00.369Z,9.8
2023-02-03T01:15:00.381Z,10.4
2023-02-03T01:20:00.394Z,9.5
2023-02-03T01:25:00.382Z,12.2
2023-02-03T01:30:00.413Z,9.8
2023-02-03T01:35:00.376Z,11.1
2023-02-03T01:40:00.395Z,8.7
2023-02-03T01:45:00.347Z,8.4
2023-02-03T01:50:00.364Z,13.4
2023-02-03T01:55:00.387Z,12.8
2023-02-03T02:00:00.660Z,13.4
2023-02-03T02:05:00.403Z,9.4
2023-02-03T02:10:00.350Z,14.1
2023-02-03T02:15:00.389Z,7.8
2023-02-03T02:20:00.351Z,7.3
2023-02-03T02:25:00.389Z,6.0
2023-02-03T02:30:00.410Z,10.4
2023-02-03T02:35:00.376Z,9.2
2023-02-03T02:40:00.402Z,10.0
2023-02-03T02:45:00.380Z,9.5
2023-02-03T02:50:00.385Z,8.0
2023-02-03T02:55:00.380Z,6.4
2023-02-03T03:00:00.397Z,7.2
2023-02-03T03:05:00.481Z,5.8
2023-02-03T03:10:00.364Z,7.9
2023-02-03T03:15:00.375Z,10.9
2023-02-03T03:20:00.370Z,6.0
2023-02-03T03:25:00.393Z,9.5
2023-02-03T03:30:00.380Z,9.3
2023-02-03T03:35:00.370Z,8.0
2023-02-03T03:40:00.388Z,6.5
2023-02-03T03:45:00.345Z,6.7
2023-02-03T03:50:00.401Z,4.6
2023-02-03T03:55:00.414Z,6.2
2023-02-03T04:00:00.869Z,6.6
2023-02-03T04:05:00.353Z,3.8
2023-02-03T04:10:00.367Z,10.1
2023-02-03T04:15:00.613Z,6.1
2023-02-03T04:20:00.435Z,7.4
2023-02-03T04:25:00.379Z,7.2
2023-02-03T04:30:00.376Z,8.9
2023-02-03T04:35:00.386Z,5.6
2023-02-03T04:40:00.349Z,4.3
2023-02-03T04:45:00.388Z,3.7
2023-02-03T04:50:00.407Z,4.5
2023-02-03T04:55:00.426Z,8.0
2023-02-03T05:00:00.378Z,12.2
2023-02-03T05:05:00.452Z,13.6
2023-02-03T05:10:00.382Z,11.9
2023-02-03T05:15:00.393Z,10.6
2023-02-03T05:20:00.384Z,7.0
2023-02-03T05:25:00.384Z,8.1
2023-02-03T05:30:00.374Z,7.7
2023-02-03T05:35:00.376Z,6.2
2023-02-03T05:40:00.424Z,7.0
2023-02-03T05:45:00.340Z,8.1
2023-02-03T05:50:00.418Z,9.9
2023-02-03T05:55:00.377Z,7.1
2023-02-03T06:00:00.439Z,8.2
2023-02-03T06:05:00.370Z,5.9
2023-02-03T06:10:00.399Z,4.3
2023-02-03T06:15:00.387Z,6.7
2023-02-03T06:20:00.382Z,6.5
2023-02-03T06:25:00.405Z,7.3
2023-02-03T06:30:00.374Z,5.5
2023-02-03T06:35:00.378Z,5.0
2023-02-03T06:40:00.375Z,7.0
2023-02-03T06:45:00.368Z,5.1
2023-02-03T06:50:00.438Z,7.8
2023-02-03T06:55:00.395Z,11.6
2023-02-03T07:00:00.376Z,7.6
2023-02-03T07:05:00.378Z,9.5
2023-02-03T07:10:00.399Z,9.3
2023-02-03T07:15:00.448Z,11.3
2023-02-03T07:20:00.367Z,8.9
2023-02-03T07:25:00.413Z,8.9
2023-02-03T07:30:00.405Z,8.7
2023-02-03T07:35:00.386Z,11.0
2023-02-03T07:40:00.459Z,6.3
2023-02-03T07:45:00.416Z,10.8
2023-02-03T07:50:00.381Z,7.5
2023-02-03T07:55:00.397Z,7.6
2023-02-03T08:00:00.378Z,13.5
2023-02-03T08:05:00.410Z,11.3
2023-02-03T08:10:01.041Z,9.7
2023-02-03T08:15:00.367Z,13.7
2023-02-03T08:20:00.366Z,8.6
2023-02-03T08:25:00.419Z,12.7
2023-02-03T08:30:00.418Z,8.8
2023-02-03T08:35:00.406Z,10.2
2023-02-03T08:40:00.397Z,16.3
2023-02-03T08:45:01.284Z,17.0
2023-02-03T08:50:00.355Z,21.6
2023-02-03T08:55:00.385Z,16.2
2023-02-03T09:00:00.399Z,20.6
2023-02-03T09:05:00.474Z,18.9
2023-02-03T09:10:00.346Z,17.6
2023-02-03T09:15:00.416Z,18.9
2023-02-03T09:20:00.481Z,19.6
2023-02-03T09:25:00.408Z,24.2
2023-02-03T09:30:00.352Z,28.4
2023-02-03T09:35:00.393Z,23.3
2023-02-03T09:40:00.382Z,32.9
2023-02-03T09:45:00.385Z,29.1
2023-02-03T09:50:00.390Z,30.5
2023-02-03T09:55:00.467Z,27.3
2023-02-03T10:00:00.366Z,42.2
2023-02-03T10:05:00.406Z,27.7
2023-02-03T10:10:00.373Z,21.6
2023-02-03T10:15:00.376Z,26.1
2023-02-03T10:20:00.381Z,34.3
2023-02-03T10:25:00.388Z,26.0
2023-02-03T10:30:00.403Z,41.7
2023-02-03T10:35:00.392Z,26.8
2023-02-03T10:40:00.373Z,29.9
2023-02-03T10:45:00.455Z,31.7
2023-02-03T10:50:00.414Z,30.6
2023-02-03T10:55:00.511Z,38.4
2023-02-03T11:00:00.380Z,38.2
2023-02-03T11:05:00.399Z,30.2
2023-02-03T11:10:00.370Z,36.7
2023-02-03T11:15:00.398Z,34.5
2023-02-03T11:20:00.416Z,28.2
2023-02-03T11:25:00.382Z,27.5
2023-02-03T11:30:00.359Z,22.6
2023-02-03T11:35:00.388Z,24.5
2023-02-03T11:40:00.398Z,33.4
2023-02-03T11:45:00.367Z,28.5
2023-02-03T11:50:00.358Z,27.1
2023-02-03T11:55:00.551Z,25.5
2023-02-03T12:00:00.356Z,26.6
2023-02-03T12:05:01.113Z,20.8
2023-02-03T12:10:00.437Z,24.3
2023-02-03T12:15:00.373Z,26.6
2023-02-03T12:20:00.513Z,21.7
2023-02-03T12:25:00.374Z,27.1
2023-02-03T12:30:00.397Z,24.5
2023-02-03T12:35:00.349Z,29.8
2023-02-03T12:40:00.408Z,28.0
2023-02-03T12:45:00.426Z,26.0
2023-02-03T12:50:02.157Z,21.1
2023-02-03T12:55:00.351Z,18.5
2023-02-03T13:00:00.397Z,30.6
2023-02-03T13:05:00.372Z,27.1
2023-02-03T13:10:00.476Z,25.3
2023-02-03T13:15:00.433Z,31.6
2023-02-03T13:20:00.386Z,20.9
2023-02-03T13:25:00.352Z,19.9
2023-02-03T13:30:00.390Z,19.7
2023-02-03T13:35:00.376Z,30.3
2023-02-03T13:40:00.370Z,21.9
2023-02-03T13:45:00.346Z,24.8
2023-02-03T13:50:00.411Z,27.7
2023-02-03T13:55:00.514Z,28.6
2023-02-03T14:00:00.342Z,26.9
2023-02-03T14:05:00.677Z,27.3
2023-02-03T14:10:00.379Z,29.0
2023-02-03T14:15:00.376Z,26.6
2023-02-03T14:20:02.421Z,27.4
2023-02-03T14:25:00.522Z,24.9
2023-02-03T14:30:00.337Z,24.4
2023-02-03T14:35:00.750Z,28.8
2023-02-03T14:40:00.366Z,26.2
2023-02-03T14:45:00.389Z,29.2
2023-02-03T14:50:00.386Z,27.8
2023-02-03T14:55:00.373Z,25.3
2023-02-03T15:00:00.406Z,22.7
2023-02-03T15:05:00.422Z,26.3
2023-02-03T15:10:00.401Z,32.0
2023-02-03T15:15:00.397Z,32.6
2023-02-03T15:20:00.402Z,24.0
2023-02-03T15:25:00.703Z,28.5
2023-02-03T15:30:00.377Z,31.8
2023-02-03T15:35:00.386Z,24.6
2023-02-03T15:40:00.496Z,28.4
2023-02-03T15:45:00.385Z,27.0
2023-02-03T15:50:00.398Z,31.7
2023-02-03T15:55:00.412Z,25.4
2023-02-03T16:00:00.406Z,29.1
2023-02-03T16:05:00.386Z,29.5
2023-02-03T16:10:00.405Z,35.3
2023-02-03T16:15:00.395Z,20.6
2023-02-03T16:20:00.369Z,24.9
2023-02-03T16:25:00.402Z,24.6
2023-02-03T16:30:00.367Z,32.9
2023-02-03T16:35:01.137Z,23.7
2023-02-03T16:40:00.366Z,23.4
2023-02-03T16:45:00.392Z,27.7
2023-02-03T16:50:00.387Z,29.5
2023-02-03T16:55:00.503Z,30.4
2023-02-03T17:00:00.353Z,27.7
2023-02-03T17:05:00.386Z,26.9
2023-02-03T17:10:00.393Z,36.3
2023-02-03T17:15:00.416Z,28.1
2023-02-03T17:20:00.378Z,25.6
2023-02-03T17:25:00.492Z,35.7
2023-02-03T17:30:00.384Z,34.2
2023-02-03T17:35:00.394Z,30.8
2023-02-03T17:55:00.371Z,32.6
2023-02-03T18:00:00.364Z,37.9
2023-02-03T18:05:00.594Z,32.0
2023-02-03T18:10:00.333Z,32.9
2023-02-03T18:15:00.519Z,31.3
2023-02-03T18:20:00.441Z,27.0
2023-02-03T18:25:00.372Z,34.7
2023-02-03T18:30:00.377Z,30.6
2023-02-03T18:35:01.004Z,28.5
2023-02-03T18:40:00.339Z,26.8
2023-02-03T18:45:00.374Z,29.5
2023-02-03T18:50:00.391Z,25.9
2023-02-03T18:55:00.379Z,30.8
2023-02-03T19:00:00.349Z,25.8
2023-02-03T19:05:00.360Z,39.2
2023-02-03T19:10:00.454Z,33.6
2023-02-03T19:15:00.368Z,36.9
2023-02-03T19:20:00.341Z,31.4
2023-02-03T19:25:00.390Z,22.1
2023-02-03T19:30:00.374Z,31.3
2023-02-03T19:35:00.390Z,28.3
2023-02-03T19:40:00.366Z,26.3
2023-02-03T19:45:00.396Z,31.7
2023-02-03T19:50:00.384Z,31.9
2023-02-03T19:55:00.551Z,23.0
2023-02-03T20:00:00.384Z,22.1
2023-02-03T20:05:00.386Z,23.7
2023-02-03T20:10:00.407Z,17.9
2023-02-03T20:15:00.414Z,11.3
2023-02-03T20:20:00.390Z,8.1
2023-02-03T20:25:00.358Z,11.7
2023-02-03T20:30:00.377Z,10.1
2023-02-03T20:35:00.434Z,11.7
2023-02-03T20:40:00.387Z,12.3
2023-02-03T20:45:00.349Z,4.6
2023-02-03T20:50:00.396Z,11.2
2023-02-03T20:55:00.714Z,7.0
2023-02-03T21:00:00.389Z,4.6
2023-02-03T21:05:00.389Z,4.2
2023-02-03T21:10:00.401Z,5.9
2023-02-03T21:15:00.386Z,5.0
2023-02-03T21:20:00.541Z,2.8
2023-02-03T21:25:00.353Z,3.2
2023-02-03T21:30:00.389Z,5.8
2023-02-03T21:35:00.377Z,3.0
2023-02-03T21:40:00.386Z,6.9
2023-02-03T21:45:00.388Z,3.0
2023-02-03T21:50:00.404Z,3.1
2023-02-03T21:55:00.366Z,3.5
2023-02-03T22:00:00.380Z,2.1
2023-02-03T22:05:00.441Z,1.8
2023-02-03T22:10:00.403Z,1.8
2023-02-03T22:15:00.429Z,3.1
2023-02-03T22:20:00.487Z,2.2
2023-02-03T22:25:00.397Z,1.8
2023-02-03T22:30:00.376Z,5.6
2023-02-03T22:35:00.408Z,2.4
2023-02-03T22:40:00.389Z,2.3
2023-02-03T22:45:00.407Z,5.4
2023-02-03T22:50:00.350Z,2.1
2023-02-03T22:55:00.390Z,2.0
2023-02-03T23:00:00.352Z,3.0
2023-02-03T23:05:00.448Z,2.9
2023-02-03T23:10:00.376Z,3.4
2023-02-03T23:15:00.398Z,2.4
2023-02-03T23:20:00.389Z,2.2
2023-02-03T23:25:00.371Z,1.2
2023-02-03T23:30:00.415Z,3.0
2023-02-03T23:35:00.403Z,1.4
2023-02-03T23:40:00.364Z,1.3
2023-02-03T23:45:00.427Z,3.4
2023-02-03T23:50:00.373Z,1.7
2023-02-03T23:55:00.405Z,5.7
